sensor_id;sensor_type;location;lat;lon;timestamp;temperature;humidity
12926;DHT22;6529;50.566;9.774;2023-01-15T00:00:13;9.00;99.90
12926;DHT22;6529;50.566;9.774;2023-01-15T00:02:39;9.00;99.90
12926;DHT22;6529;50.566;9.774;2023-01-15T00:05:05;9.00;99.90
12926;DHT22;6529;50.566;9.774;2023-01-15T00:07:31;9.00;99.90
12926;DHT22;6529;50.566;9.774;2023-01-15T00:09:57;9.00;99.90
12926;DHT22;6529;50.566;9.774;2023-01-15T00:12:22;9.00;99.90
12926;DHT22;6529;50.566;9.774;2023-01-15T00:14:48;9.00;99.90
12926;DHT22;6529;50.566;9.774;2023-01-15T00:17:13;9.10;99.90
12926;DHT22;6529;50.566;9.774;2023-01-15T00:19:39;9.10;99.90
12926;DHT22;6529;50.566;9.774;2023-01-15T00:22:05;9.10;99.90
12926;DHT22;6529;50.566;9.774;2023-01-15T00:24:30;9.10;99.90
12926;DHT22;6529;50.566;9.774;2023-01-15T00:27:14;9.10;99.90
12926;DHT22;6529;50.566;9.774;2023-01-15T00:29:58;9.10;99.90
12926;DHT22;6529;50.566;9.774;2023-01-15T00:32:24;9.10;99.90
12926;DHT22;6529;50.566;9.774;2023-01-15T00:34:52;9.10;99.90
12926;DHT22;6529;50.566;9.774;2023-01-15T00:37:17;9.10;99.90
12926;DHT22;6529;50.566;9.774;2023-01-15T00:39:43;9.10;99.90
12926;DHT22;6529;50.566;9.774;2023-01-15T00:42:10;9.20;99.90
12926;DHT22;6529;50.566;9.774;2023-01-15T00:44:36;9.20;99.90
12926;DHT22;6529;50.566;9.774;2023-01-15T00:47:02;9.20;99.90
12926;DHT22;6529;50.566;9.774;2023-01-15T00:49:27;9.10;99.90
12926;DHT22;6529;50.566;9.774;2023-01-15T00:51:53;9.20;99.90
12926;DHT22;6529;50.566;9.774;2023-01-15T00:54:19;9.20;99.90
12926;DHT22;6529;50.566;9.774;2023-01-15T00:56:44;9.20;99.90
12926;DHT22;6529;50.566;9.774;2023-01-15T00:59:10;9.20;99.90
12926;DHT22;6529;50.566;9.774;2023-01-15T01:01:36;9.20;99.90
12926;DHT22;6529;50.566;9.774;2023-01-15T01:04:02;9.10;99.90
12926;DHT22;6529;50.566;9.774;2023-01-15T01:06:28;9.20;99.90
12926;DHT22;6529;50.566;9.774;2023-01-15T01:08:54;9.10;99.90
12926;DHT22;6529;50.566;9.774;2023-01-15T01:11:22;9.10;99.90
12926;DHT22;6529;50.566;9.774;2023-01-15T01:13:51;9.10;99.90
12926;DHT22;6529;50.566;9.774;2023-01-15T01:16:24;9.10;99.90
12926;DHT22;6529;50.566;9.774;2023-01-15T01:18:50;9.10;99.90
12926;DHT22;6529;50.566;9.774;2023-01-15T01:21:16;9.10;99.90
12926;DHT22;6529;50.566;9.774;2023-01-15T01:23:42;9.10;99.90
12926;DHT22;6529;50.566;9.774;2023-01-15T01:26:08;9.20;99.90
12926;DHT22;6529;50.566;9.774;2023-01-15T01:28:34;9.10;99.90
12926;DHT22;6529;50.566;9.774;2023-01-15T01:31:04;9.10;99.90
12926;DHT22;6529;50.566;9.774;2023-01-15T01:33:29;9.10;99.90
12926;DHT22;6529;50.566;9.774;2023-01-15T01:35:55;9.10;99.90
12926;DHT22;6529;50.566;9.774;2023-01-15T01:38:20;9.10;99.90
12926;DHT22;6529;50.566;9.774;2023-01-15T01:40:46;9.10;99.90
12926;DHT22;6529;50.566;9.774;2023-01-15T01:43:27;9.00;99.90
12926;DHT22;6529;50.566;9.774;2023-01-15T01:45:53;9.00;99.90
12926;DHT22;6529;50.566;9.774;2023-01-15T01:48:24;9.00;99.90
12926;DHT22;6529;50.566;9.774;2023-01-15T01:50:51;9.10;99.90
12926;DHT22;6529;50.566;9.774;2023-01-15T01:53:24;9.00;99.90
12926;DHT22;6529;50.566;9.774;2023-01-15T01:55:52;9.00;99.90
12926;DHT22;6529;50.566;9.774;2023-01-15T01:58:19;9.00;99.90
12926;DHT22;6529;50.566;9.774;2023-01-15T02:00:47;9.00;99.90
12926;DHT22;6529;50.566;9.774;2023-01-15T02:03:15;9.10;99.90
12926;DHT22;6529;50.566;9.774;2023-01-15T02:05:49;9.10;99.90
12926;DHT22;6529;50.566;9.774;2023-01-15T02:08:15;8.80;99.90
12926;DHT22;6529;50.566;9.774;2023-01-15T02:10:41;8.50;99.90
12926;DHT22;6529;50.566;9.774;2023-01-15T02:21:53;8.00;99.90
12926;DHT22;6529;50.566;9.774;2023-01-15T02:30:07;7.90;99.90
12926;DHT22;6529;50.566;9.774;2023-01-15T02:32:40;7.80;99.90
12926;DHT22;6529;50.566;9.774;2023-01-15T02:35:24;7.80;99.90
12926;DHT22;6529;50.566;9.774;2023-01-15T02:37:54;7.70;99.90
12926;DHT22;6529;50.566;9.774;2023-01-15T02:40:23;7.70;99.90
12926;DHT22;6529;50.566;9.774;2023-01-15T02:42:50;7.70;99.90
12926;DHT22;6529;50.566;9.774;2023-01-15T02:45:20;7.60;99.90
12926;DHT22;6529;50.566;9.774;2023-01-15T02:47:50;7.60;99.90
12926;DHT22;6529;50.566;9.774;2023-01-15T02:50:19;7.60;99.90
12926;DHT22;6529;50.566;9.774;2023-01-15T02:52:50;7.60;99.90
12926;DHT22;6529;50.566;9.774;2023-01-15T02:55:23;7.50;99.90
12926;DHT22;6529;50.566;9.774;2023-01-15T02:57:53;7.50;99.90
12926;DHT22;6529;50.566;9.774;2023-01-15T03:00:22;7.40;99.90
12926;DHT22;6529;50.566;9.774;2023-01-15T03:03:00;7.40;99.90
12926;DHT22;6529;50.566;9.774;2023-01-15T03:05:38;7.30;99.90
12926;DHT22;6529;50.566;9.774;2023-01-15T03:08:06;7.20;99.90
12926;DHT22;6529;50.566;9.774;2023-01-15T03:10:45;7.10;99.90
12926;DHT22;6529;50.566;9.774;2023-01-15T03:13:15;7.10;99.90
12926;DHT22;6529;50.566;9.774;2023-01-15T03:15:56;7.00;99.90
12926;DHT22;6529;50.566;9.774;2023-01-15T03:18:51;7.00;99.90
12926;DHT22;6529;50.566;9.774;2023-01-15T03:22:07;6.80;99.90
12926;DHT22;6529;50.566;9.774;2023-01-15T03:24:07;6.70;99.90
12926;DHT22;6529;50.566;9.774;2023-01-15T03:26:34;6.70;99.90
12926;DHT22;6529;50.566;9.774;2023-01-15T03:29:02;6.70;99.90
12926;DHT22;6529;50.566;9.774;2023-01-15T03:31:30;6.70;99.90
12926;DHT22;6529;50.566;9.774;2023-01-15T03:33:56;6.60;99.90
12926;DHT22;6529;50.566;9.774;2023-01-15T03:36:22;6.60;99.90
12926;DHT22;6529;50.566;9.774;2023-01-15T03:38:48;6.50;99.90
12926;DHT22;6529;50.566;9.774;2023-01-15T03:53:11;6.30;99.90
12926;DHT22;6529;50.566;9.774;2023-01-15T03:55:28;6.30;99.90
12926;DHT22;6529;50.566;9.774;2023-01-15T03:57:59;6.30;99.90
12926;DHT22;6529;50.566;9.774;2023-01-15T04:00:32;6.30;99.90
12926;DHT22;6529;50.566;9.774;2023-01-15T04:03:00;6.30;99.90
12926;DHT22;6529;50.566;9.774;2023-01-15T04:05:29;6.30;99.90
12926;DHT22;6529;50.566;9.774;2023-01-15T04:07:57;6.20;99.90
12926;DHT22;6529;50.566;9.774;2023-01-15T04:10:23;6.20;99.90
12926;DHT22;6529;50.566;9.774;2023-01-15T04:12:49;6.10;99.90
12926;DHT22;6529;50.566;9.774;2023-01-15T04:15:15;6.10;99.90
12926;DHT22;6529;50.566;9.774;2023-01-15T04:17:41;6.00;99.90
12926;DHT22;6529;50.566;9.774;2023-01-15T04:20:08;6.00;99.90
12926;DHT22;6529;50.566;9.774;2023-01-15T04:22:34;6.00;99.90
12926;DHT22;6529;50.566;9.774;2023-01-15T04:25:04;5.90;99.90
12926;DHT22;6529;50.566;9.774;2023-01-15T04:27:29;5.90;99.90
12926;DHT22;6529;50.566;9.774;2023-01-15T04:29:55;5.70;99.90
12926;DHT22;6529;50.566;9.774;2023-01-15T04:32:21;5.70;99.90
12926;DHT22;6529;50.566;9.774;2023-01-15T04:34:47;5.70;99.90
12926;DHT22;6529;50.566;9.774;2023-01-15T04:37:13;5.60;99.90
12926;DHT22;6529;50.566;9.774;2023-01-15T04:39:39;5.50;99.90
12926;DHT22;6529;50.566;9.774;2023-01-15T04:42:04;5.50;99.90
12926;DHT22;6529;50.566;9.774;2023-01-15T04:44:48;5.40;99.90
12926;DHT22;6529;50.566;9.774;2023-01-15T04:47:14;5.40;99.90
12926;DHT22;6529;50.566;9.774;2023-01-15T04:49:39;5.40;99.90
12926;DHT22;6529;50.566;9.774;2023-01-15T04:52:05;5.40;99.90
12926;DHT22;6529;50.566;9.774;2023-01-15T04:54:31;5.40;99.90
12926;DHT22;6529;50.566;9.774;2023-01-15T04:56:57;5.30;99.90
12926;DHT22;6529;50.566;9.774;2023-01-15T04:59:25;5.30;99.90
12926;DHT22;6529;50.566;9.774;2023-01-15T05:01:51;5.30;99.90
12926;DHT22;6529;50.566;9.774;2023-01-15T05:04:16;5.30;99.90
12926;DHT22;6529;50.566;9.774;2023-01-15T05:06:42;5.20;99.90
12926;DHT22;6529;50.566;9.774;2023-01-15T05:09:08;5.20;99.90
12926;DHT22;6529;50.566;9.774;2023-01-15T05:11:35;5.10;99.90
12926;DHT22;6529;50.566;9.774;2023-01-15T05:14:01;5.10;99.90
12926;DHT22;6529;50.566;9.774;2023-01-15T05:16:27;4.90;99.90
12926;DHT22;6529;50.566;9.774;2023-01-15T05:18:56;4.90;99.90
12926;DHT22;6529;50.566;9.774;2023-01-15T05:21:25;4.90;99.90
12926;DHT22;6529;50.566;9.774;2023-01-15T05:23:53;4.90;99.90
12926;DHT22;6529;50.566;9.774;2023-01-15T05:26:19;4.90;99.90
12926;DHT22;6529;50.566;9.774;2023-01-15T05:28:46;4.90;99.90
12926;DHT22;6529;50.566;9.774;2023-01-15T05:31:15;4.80;99.90
12926;DHT22;6529;50.566;9.774;2023-01-15T05:33:42;4.80;99.90
12926;DHT22;6529;50.566;9.774;2023-01-15T05:36:16;4.70;99.90
12926;DHT22;6529;50.566;9.774;2023-01-15T05:38:42;4.70;99.90
12926;DHT22;6529;50.566;9.774;2023-01-15T05:41:10;4.70;99.90
12926;DHT22;6529;50.566;9.774;2023-01-15T05:43:58;4.70;99.90
12926;DHT22;6529;50.566;9.774;2023-01-15T05:46:24;4.70;99.90
12926;DHT22;6529;50.566;9.774;2023-01-15T05:48:50;4.70;99.90
12926;DHT22;6529;50.566;9.774;2023-01-15T05:51:15;4.60;99.90
12926;DHT22;6529;50.566;9.774;2023-01-15T05:53:41;4.60;99.90
12926;DHT22;6529;50.566;9.774;2023-01-15T05:56:07;4.60;99.90
12926;DHT22;6529;50.566;9.774;2023-01-15T05:58:33;4.60;99.90
12926;DHT22;6529;50.566;9.774;2023-01-15T06:00:59;4.70;99.90
12926;DHT22;6529;50.566;9.774;2023-01-15T06:03:25;4.70;99.90
12926;DHT22;6529;50.566;9.774;2023-01-15T06:05:52;4.70;99.90
12926;DHT22;6529;50.566;9.774;2023-01-15T06:08:17;4.70;99.90
12926;DHT22;6529;50.566;9.774;2023-01-15T06:10:47;4.60;99.90
12926;DHT22;6529;50.566;9.774;2023-01-15T06:13:13;4.60;99.90
12926;DHT22;6529;50.566;9.774;2023-01-15T06:15:39;4.70;99.90
12926;DHT22;6529;50.566;9.774;2023-01-15T06:18:05;4.70;99.90
12926;DHT22;6529;50.566;9.774;2023-01-15T06:20:31;4.60;99.90
12926;DHT22;6529;50.566;9.774;2023-01-15T06:22:56;4.60;99.90
12926;DHT22;6529;50.566;9.774;2023-01-15T06:25:22;4.60;99.90
12926;DHT22;6529;50.566;9.774;2023-01-15T06:27:47;4.50;99.90
12926;DHT22;6529;50.566;9.774;2023-01-15T06:30:14;4.60;99.90
12926;DHT22;6529;50.566;9.774;2023-01-15T06:32:40;4.60;99.90
12926;DHT22;6529;50.566;9.774;2023-01-15T06:35:06;4.60;99.90
12926;DHT22;6529;50.566;9.774;2023-01-15T06:37:32;4.60;99.90
12926;DHT22;6529;50.566;9.774;2023-01-15T06:39:57;4.60;99.90
12926;DHT22;6529;50.566;9.774;2023-01-15T06:42:23;4.60;99.90
12926;DHT22;6529;50.566;9.774;2023-01-15T06:45:10;4.60;99.90
12926;DHT22;6529;50.566;9.774;2023-01-15T06:47:56;4.60;99.90
12926;DHT22;6529;50.566;9.774;2023-01-15T06:50:23;4.60;99.90
12926;DHT22;6529;50.566;9.774;2023-01-15T06:52:48;4.60;99.90
12926;DHT22;6529;50.566;9.774;2023-01-15T06:55:14;4.50;99.90
12926;DHT22;6529;50.566;9.774;2023-01-15T06:57:40;4.50;99.90
12926;DHT22;6529;50.566;9.774;2023-01-15T07:00:07;4.40;99.90
12926;DHT22;6529;50.566;9.774;2023-01-15T07:02:33;4.40;99.90
12926;DHT22;6529;50.566;9.774;2023-01-15T07:04:59;4.50;99.90
12926;DHT22;6529;50.566;9.774;2023-01-15T07:07:26;4.50;99.90
12926;DHT22;6529;50.566;9.774;2023-01-15T07:09:52;4.40;99.90
12926;DHT22;6529;50.566;9.774;2023-01-15T07:12:17;4.50;99.90
12926;DHT22;6529;50.566;9.774;2023-01-15T07:14:43;4.50;99.90
12926;DHT22;6529;50.566;9.774;2023-01-15T07:17:09;4.40;99.90
12926;DHT22;6529;50.566;9.774;2023-01-15T07:19:36;4.40;99.90
12926;DHT22;6529;50.566;9.774;2023-01-15T07:22:02;4.40;99.90
12926;DHT22;6529;50.566;9.774;2023-01-15T07:24:27;4.30;99.90
12926;DHT22;6529;50.566;9.774;2023-01-15T07:26:53;4.30;99.90
12926;DHT22;6529;50.566;9.774;2023-01-15T07:29:18;4.30;99.90
12926;DHT22;6529;50.566;9.774;2023-01-15T07:31:44;4.30;99.90
12926;DHT22;6529;50.566;9.774;2023-01-15T07:34:10;4.30;99.90
12926;DHT22;6529;50.566;9.774;2023-01-15T07:36:36;4.30;99.90
12926;DHT22;6529;50.566;9.774;2023-01-15T07:39:03;4.30;99.90
12926;DHT22;6529;50.566;9.774;2023-01-15T07:41:32;4.30;99.90
12926;DHT22;6529;50.566;9.774;2023-01-15T07:44:17;4.30;99.90
12926;DHT22;6529;50.566;9.774;2023-01-15T07:47:01;4.30;99.90
12926;DHT22;6529;50.566;9.774;2023-01-15T07:49:46;4.30;99.90
12926;DHT22;6529;50.566;9.774;2023-01-15T07:52:15;4.40;99.90
12926;DHT22;6529;50.566;9.774;2023-01-15T07:54:41;4.40;99.90
12926;DHT22;6529;50.566;9.774;2023-01-15T07:57:07;4.50;99.90
12926;DHT22;6529;50.566;9.774;2023-01-15T07:59:33;4.50;99.90
12926;DHT22;6529;50.566;9.774;2023-01-15T08:01:58;4.30;99.90
12926;DHT22;6529;50.566;9.774;2023-01-15T08:04:24;4.30;99.90
12926;DHT22;6529;50.566;9.774;2023-01-15T08:06:49;4.20;99.90
12926;DHT22;6529;50.566;9.774;2023-01-15T08:09:15;4.20;99.90
12926;DHT22;6529;50.566;9.774;2023-01-15T08:11:40;4.20;99.90
12926;DHT22;6529;50.566;9.774;2023-01-15T08:14:25;4.10;99.90
12926;DHT22;6529;50.566;9.774;2023-01-15T08:17:09;4.10;99.90
12926;DHT22;6529;50.566;9.774;2023-01-15T08:19:34;4.10;99.90
12926;DHT22;6529;50.566;9.774;2023-01-15T08:22:00;4.10;99.90
12926;DHT22;6529;50.566;9.774;2023-01-15T08:24:26;4.10;99.90
12926;DHT22;6529;50.566;9.774;2023-01-15T08:26:53;4.10;99.90
12926;DHT22;6529;50.566;9.774;2023-01-15T08:29:19;4.10;99.90
12926;DHT22;6529;50.566;9.774;2023-01-15T08:31:45;4.00;99.90
12926;DHT22;6529;50.566;9.774;2023-01-15T08:34:11;4.00;99.90
12926;DHT22;6529;50.566;9.774;2023-01-15T08:36:36;4.00;99.90
12926;DHT22;6529;50.566;9.774;2023-01-15T08:39:02;4.00;99.90
12926;DHT22;6529;50.566;9.774;2023-01-15T08:41:29;3.90;99.90
12926;DHT22;6529;50.566;9.774;2023-01-15T08:43:55;3.80;99.90
12926;DHT22;6529;50.566;9.774;2023-01-15T08:46:20;3.80;99.90
12926;DHT22;6529;50.566;9.774;2023-01-15T08:48:46;3.80;99.90
12926;DHT22;6529;50.566;9.774;2023-01-15T08:51:13;3.80;99.90
12926;DHT22;6529;50.566;9.774;2023-01-15T08:53:38;3.80;99.90
12926;DHT22;6529;50.566;9.774;2023-01-15T08:56:11;3.70;99.90
12926;DHT22;6529;50.566;9.774;2023-01-15T08:58:38;3.70;99.90
12926;DHT22;6529;50.566;9.774;2023-01-15T09:01:05;3.70;99.90
12926;DHT22;6529;50.566;9.774;2023-01-15T09:03:31;3.60;99.90
12926;DHT22;6529;50.566;9.774;2023-01-15T09:05:58;3.50;99.90
12926;DHT22;6529;50.566;9.774;2023-01-15T09:08:24;3.50;99.90
12926;DHT22;6529;50.566;9.774;2023-01-15T09:10:50;3.50;99.90
12926;DHT22;6529;50.566;9.774;2023-01-15T09:13:15;3.40;99.90
12926;DHT22;6529;50.566;9.774;2023-01-15T09:15:41;3.40;99.90
12926;DHT22;6529;50.566;9.774;2023-01-15T09:18:07;3.30;99.90
12926;DHT22;6529;50.566;9.774;2023-01-15T09:20:35;3.30;99.90
12926;DHT22;6529;50.566;9.774;2023-01-15T09:23:00;3.20;99.90
12926;DHT22;6529;50.566;9.774;2023-01-15T09:25:26;3.00;99.90
12926;DHT22;6529;50.566;9.774;2023-01-15T09:27:55;2.90;99.90
12926;DHT22;6529;50.566;9.774;2023-01-15T09:30:21;2.80;99.90
12926;DHT22;6529;50.566;9.774;2023-01-15T09:32:47;2.80;99.90
12926;DHT22;6529;50.566;9.774;2023-01-15T09:35:12;2.70;99.90
12926;DHT22;6529;50.566;9.774;2023-01-15T09:37:38;2.70;99.90
12926;DHT22;6529;50.566;9.774;2023-01-15T09:40:06;2.70;99.90
12926;DHT22;6529;50.566;9.774;2023-01-15T09:45:19;2.50;99.90
12926;DHT22;6529;50.566;9.774;2023-01-15T09:55:49;2.10;99.90
12926;DHT22;6529;50.566;9.774;2023-01-15T09:58:19;2.00;99.90
12926;DHT22;6529;50.566;9.774;2023-01-15T10:00:48;2.00;99.90
12926;DHT22;6529;50.566;9.774;2023-01-15T10:03:42;2.00;99.90
12926;DHT22;6529;50.566;9.774;2023-01-15T10:06:27;2.00;99.90
12926;DHT22;6529;50.566;9.774;2023-01-15T10:09:15;2.00;99.90
12926;DHT22;6529;50.566;9.774;2023-01-15T10:11:50;1.90;99.90
12926;DHT22;6529;50.566;9.774;2023-01-15T10:17:46;1.80;99.90
12926;DHT22;6529;50.566;9.774;2023-01-15T10:31:21;1.90;99.90
12926;DHT22;6529;50.566;9.774;2023-01-15T10:34:15;2.00;99.90
12926;DHT22;6529;50.566;9.774;2023-01-15T10:36:57;1.90;99.90
12926;DHT22;6529;50.566;9.774;2023-01-15T10:47:24;2.10;99.90
12926;DHT22;6529;50.566;9.774;2023-01-15T10:49:51;2.20;99.90
12926;DHT22;6529;50.566;9.774;2023-01-15T10:52:45;2.20;99.90
12926;DHT22;6529;50.566;9.774;2023-01-15T10:55:30;2.20;99.90
12926;DHT22;6529;50.566;9.774;2023-01-15T11:01:02;2.70;99.90
12926;DHT22;6529;50.566;9.774;2023-01-15T11:03:35;2.70;99.90
12926;DHT22;6529;50.566;9.774;2023-01-15T11:06:02;2.70;99.90
12926;DHT22;6529;50.566;9.774;2023-01-15T11:08:29;2.80;99.90
12926;DHT22;6529;50.566;9.774;2023-01-15T11:10:56;2.90;99.90
12926;DHT22;6529;50.566;9.774;2023-01-15T11:13:26;2.80;99.90
12926;DHT22;6529;50.566;9.774;2023-01-15T11:16:22;2.70;99.90
12926;DHT22;6529;50.566;9.774;2023-01-15T11:19:27;2.70;99.90
12926;DHT22;6529;50.566;9.774;2023-01-15T11:22:19;2.80;99.90
12926;DHT22;6529;50.566;9.774;2023-01-15T11:24:51;2.90;99.90
12926;DHT22;6529;50.566;9.774;2023-01-15T11:27:24;3.00;99.90
12926;DHT22;6529;50.566;9.774;2023-01-15T11:29:56;3.00;99.90
12926;DHT22;6529;50.566;9.774;2023-01-15T11:32:30;3.10;99.90
12926;DHT22;6529;50.566;9.774;2023-01-15T11:34:58;3.10;99.90
12926;DHT22;6529;50.566;9.774;2023-01-15T11:37:25;3.20;99.90
12926;DHT22;6529;50.566;9.774;2023-01-15T11:39:59;3.30;99.90
12926;DHT22;6529;50.566;9.774;2023-01-15T11:42:32;3.40;99.90
12926;DHT22;6529;50.566;9.774;2023-01-15T11:45:20;3.50;99.90
12926;DHT22;6529;50.566;9.774;2023-01-15T11:51:11;3.70;99.90
12926;DHT22;6529;50.566;9.774;2023-01-15T11:53:42;3.70;99.90
12926;DHT22;6529;50.566;9.774;2023-01-15T11:56:14;3.80;99.90
12926;DHT22;6529;50.566;9.774;2023-01-15T12:01:22;3.80;99.90
12926;DHT22;6529;50.566;9.774;2023-01-15T12:03:59;3.90;99.90
12926;DHT22;6529;50.566;9.774;2023-01-15T12:06:26;3.90;99.90
12926;DHT22;6529;50.566;9.774;2023-01-15T12:09:20;4.00;99.90
12926;DHT22;6529;50.566;9.774;2023-01-15T12:14:36;4.10;99.90
12926;DHT22;6529;50.566;9.774;2023-01-15T12:22:54;4.50;99.90
12926;DHT22;6529;50.566;9.774;2023-01-15T12:28:32;4.90;99.90
12926;DHT22;6529;50.566;9.774;2023-01-15T12:39:21;5.50;99.90
12926;DHT22;6529;50.566;9.774;2023-01-15T12:41:48;5.50;99.90
12926;DHT22;6529;50.566;9.774;2023-01-15T12:44:55;5.70;99.90
12926;DHT22;6529;50.566;9.774;2023-01-15T12:47:35;5.70;99.90
12926;DHT22;6529;50.566;9.774;2023-01-15T12:50:24;5.60;99.90
12926;DHT22;6529;50.566;9.774;2023-01-15T12:52:53;5.70;99.90
12926;DHT22;6529;50.566;9.774;2023-01-15T12:55:25;5.60;99.90
12926;DHT22;6529;50.566;9.774;2023-01-15T12:57:56;5.50;99.90
12926;DHT22;6529;50.566;9.774;2023-01-15T13:00:36;5.30;99.90
12926;DHT22;6529;50.566;9.774;2023-01-15T13:05:54;5.50;99.90
12926;DHT22;6529;50.566;9.774;2023-01-15T13:08:53;5.30;99.90
12926;DHT22;6529;50.566;9.774;2023-01-15T13:11:24;5.30;99.90
12926;DHT22;6529;50.566;9.774;2023-01-15T13:13:50;5.50;99.90
12926;DHT22;6529;50.566;9.774;2023-01-15T13:21:47;6.20;99.90
12926;DHT22;6529;50.566;9.774;2023-01-15T13:32:50;6.40;99.90
12926;DHT22;6529;50.566;9.774;2023-01-15T13:35:52;6.60;99.90
12926;DHT22;6529;50.566;9.774;2023-01-15T13:38:23;6.50;99.90
12926;DHT22;6529;50.566;9.774;2023-01-15T13:40:52;6.40;99.90
12926;DHT22;6529;50.566;9.774;2023-01-15T13:43:26;6.20;99.90
12926;DHT22;6529;50.566;9.774;2023-01-15T13:45:54;6.00;99.90
12926;DHT22;6529;50.566;9.774;2023-01-15T13:48:39;5.80;99.90
12926;DHT22;6529;50.566;9.774;2023-01-15T13:51:31;5.60;99.90
12926;DHT22;6529;50.566;9.774;2023-01-15T13:53:58;5.60;99.90
12926;DHT22;6529;50.566;9.774;2023-01-15T13:56:31;5.40;99.90
12926;DHT22;6529;50.566;9.774;2023-01-15T13:59:02;5.40;99.90
12926;DHT22;6529;50.566;9.774;2023-01-15T14:09:02;5.60;99.90
12926;DHT22;6529;50.566;9.774;2023-01-15T14:17:06;5.40;99.90
12926;DHT22;6529;50.566;9.774;2023-01-15T14:19:40;5.30;99.90
12926;DHT22;6529;50.566;9.774;2023-01-15T14:25:15;5.20;99.90
12926;DHT22;6529;50.566;9.774;2023-01-15T14:36:37;5.00;99.90
12926;DHT22;6529;50.566;9.774;2023-01-15T14:39:17;5.00;99.90
12926;DHT22;6529;50.566;9.774;2023-01-15T14:41:55;5.00;99.90
12926;DHT22;6529;50.566;9.774;2023-01-15T14:44:42;4.90;99.90
12926;DHT22;6529;50.566;9.774;2023-01-15T14:47:21;4.90;99.90
12926;DHT22;6529;50.566;9.774;2023-01-15T14:50:40;4.90;99.90
12926;DHT22;6529;50.566;9.774;2023-01-15T14:52:48;4.90;99.90
12926;DHT22;6529;50.566;9.774;2023-01-15T14:55:15;4.90;99.90
12926;DHT22;6529;50.566;9.774;2023-01-15T14:57:45;4.80;99.90
12926;DHT22;6529;50.566;9.774;2023-01-15T15:00:19;4.80;99.90
12926;DHT22;6529;50.566;9.774;2023-01-15T15:02:47;4.90;99.90
12926;DHT22;6529;50.566;9.774;2023-01-15T15:05:16;4.80;99.90
12926;DHT22;6529;50.566;9.774;2023-01-15T15:07:44;4.80;99.90
12926;DHT22;6529;50.566;9.774;2023-01-15T15:23:23;4.80;99.90
12926;DHT22;6529;50.566;9.774;2023-01-15T15:25:59;4.80;99.90
12926;DHT22;6529;50.566;9.774;2023-01-15T15:28:26;4.80;99.90
12926;DHT22;6529;50.566;9.774;2023-01-15T15:30:52;4.80;99.90
12926;DHT22;6529;50.566;9.774;2023-01-15T15:33:24;4.80;99.90
12926;DHT22;6529;50.566;9.774;2023-01-15T15:35:56;4.80;99.90
12926;DHT22;6529;50.566;9.774;2023-01-15T15:38:24;4.80;99.90
12926;DHT22;6529;50.566;9.774;2023-01-15T15:40:55;4.80;99.90
12926;DHT22;6529;50.566;9.774;2023-01-15T15:43:44;4.70;99.90
12926;DHT22;6529;50.566;9.774;2023-01-15T15:46:31;4.70;99.90
12926;DHT22;6529;50.566;9.774;2023-01-15T15:49:16;4.70;99.90
12926;DHT22;6529;50.566;9.774;2023-01-15T15:51:50;4.70;99.90
12926;DHT22;6529;50.566;9.774;2023-01-15T15:54:25;4.70;99.90
12926;DHT22;6529;50.566;9.774;2023-01-15T15:57:14;4.70;99.90
12926;DHT22;6529;50.566;9.774;2023-01-15T15:59:45;4.60;99.90
12926;DHT22;6529;50.566;9.774;2023-01-15T16:02:29;4.60;99.90
12926;DHT22;6529;50.566;9.774;2023-01-15T16:05:00;4.60;99.90
12926;DHT22;6529;50.566;9.774;2023-01-15T16:07:32;4.60;99.90
12926;DHT22;6529;50.566;9.774;2023-01-15T16:10:38;4.60;99.90
12926;DHT22;6529;50.566;9.774;2023-01-15T16:13:06;4.60;99.90
12926;DHT22;6529;50.566;9.774;2023-01-15T16:15:38;4.60;99.90
12926;DHT22;6529;50.566;9.774;2023-01-15T16:18:05;4.60;99.90
12926;DHT22;6529;50.566;9.774;2023-01-15T16:20:32;4.60;99.90
12926;DHT22;6529;50.566;9.774;2023-01-15T16:23:03;4.60;99.90
12926;DHT22;6529;50.566;9.774;2023-01-15T16:25:36;4.60;99.90
12926;DHT22;6529;50.566;9.774;2023-01-15T16:28:03;4.60;99.90
12926;DHT22;6529;50.566;9.774;2023-01-15T16:30:30;4.60;99.90
12926;DHT22;6529;50.566;9.774;2023-01-15T16:33:02;4.60;99.90
12926;DHT22;6529;50.566;9.774;2023-01-15T16:35:30;4.60;99.90
12926;DHT22;6529;50.566;9.774;2023-01-15T16:38:00;4.60;99.90
12926;DHT22;6529;50.566;9.774;2023-01-15T16:43:11;4.60;99.90
12926;DHT22;6529;50.566;9.774;2023-01-15T16:46:02;4.50;99.90
12926;DHT22;6529;50.566;9.774;2023-01-15T16:48:36;4.50;99.90
12926;DHT22;6529;50.566;9.774;2023-01-15T16:53:52;4.60;99.90
12926;DHT22;6529;50.566;9.774;2023-01-15T16:59:16;4.60;99.90
12926;DHT22;6529;50.566;9.774;2023-01-15T17:01:46;4.50;99.90
12926;DHT22;6529;50.566;9.774;2023-01-15T17:04:26;4.50;99.90
12926;DHT22;6529;50.566;9.774;2023-01-15T17:09:30;4.50;99.90
12926;DHT22;6529;50.566;9.774;2023-01-15T17:11:57;4.40;99.90
12926;DHT22;6529;50.566;9.774;2023-01-15T17:14:25;4.40;99.90
12926;DHT22;6529;50.566;9.774;2023-01-15T17:17:27;4.40;99.90
12926;DHT22;6529;50.566;9.774;2023-01-15T17:19:54;4.40;99.90
12926;DHT22;6529;50.566;9.774;2023-01-15T17:22:30;4.40;99.90
12926;DHT22;6529;50.566;9.774;2023-01-15T17:24:57;4.30;99.90
12926;DHT22;6529;50.566;9.774;2023-01-15T17:27:24;4.20;99.90
12926;DHT22;6529;50.566;9.774;2023-01-15T17:29:51;4.10;99.90
12926;DHT22;6529;50.566;9.774;2023-01-15T17:34:50;4.00;99.90
12926;DHT22;6529;50.566;9.774;2023-01-15T17:37:15;4.00;99.90
12926;DHT22;6529;50.566;9.774;2023-01-15T17:39:41;4.10;99.90
12926;DHT22;6529;50.566;9.774;2023-01-15T17:42:14;4.10;99.90
12926;DHT22;6529;50.566;9.774;2023-01-15T17:44:40;4.10;99.90
12926;DHT22;6529;50.566;9.774;2023-01-15T17:47:06;4.10;99.90
12926;DHT22;6529;50.566;9.774;2023-01-15T17:49:32;4.20;99.90
12926;DHT22;6529;50.566;9.774;2023-01-15T17:51:58;4.20;99.90
12926;DHT22;6529;50.566;9.774;2023-01-15T17:54:24;4.20;99.90
12926;DHT22;6529;50.566;9.774;2023-01-15T17:57:08;4.20;99.90
12926;DHT22;6529;50.566;9.774;2023-01-15T17:59:52;4.20;99.90
12926;DHT22;6529;50.566;9.774;2023-01-15T18:02:37;4.20;99.90
12926;DHT22;6529;50.566;9.774;2023-01-15T18:05:30;4.20;99.90
12926;DHT22;6529;50.566;9.774;2023-01-15T18:08:01;4.20;99.90
12926;DHT22;6529;50.566;9.774;2023-01-15T18:10:27;4.20;99.90
12926;DHT22;6529;50.566;9.774;2023-01-15T18:12:53;4.20;99.90
12926;DHT22;6529;50.566;9.774;2023-01-15T18:15:18;4.20;99.90
12926;DHT22;6529;50.566;9.774;2023-01-15T18:17:45;4.20;99.90
12926;DHT22;6529;50.566;9.774;2023-01-15T18:20:11;4.30;99.90
12926;DHT22;6529;50.566;9.774;2023-01-15T18:22:37;4.30;99.90
12926;DHT22;6529;50.566;9.774;2023-01-15T18:25:04;4.30;99.90
12926;DHT22;6529;50.566;9.774;2023-01-15T18:27:30;4.30;99.90
12926;DHT22;6529;50.566;9.774;2023-01-15T18:29:56;4.40;99.90
12926;DHT22;6529;50.566;9.774;2023-01-15T18:32:26;4.40;99.90
12926;DHT22;6529;50.566;9.774;2023-01-15T18:34:52;4.40;99.90
12926;DHT22;6529;50.566;9.774;2023-01-15T18:37:17;4.40;99.90
12926;DHT22;6529;50.566;9.774;2023-01-15T18:39:43;4.40;99.90
12926;DHT22;6529;50.566;9.774;2023-01-15T18:42:09;4.40;99.90
12926;DHT22;6529;50.566;9.774;2023-01-15T18:44:35;4.40;99.90
12926;DHT22;6529;50.566;9.774;2023-01-15T18:47:19;4.40;99.90
12926;DHT22;6529;50.566;9.774;2023-01-15T18:49:45;4.40;99.90
12926;DHT22;6529;50.566;9.774;2023-01-15T18:52:13;4.40;99.90
12926;DHT22;6529;50.566;9.774;2023-01-15T18:54:59;4.40;99.90
12926;DHT22;6529;50.566;9.774;2023-01-15T18:57:24;4.40;99.90
12926;DHT22;6529;50.566;9.774;2023-01-15T18:59:50;4.40;99.90